createdAt,value
2018-08-09T00:01:14.024Z,99.90
2018-08-09T00:03:43.425Z,99.90
2018-08-09T00:06:13.383Z,99.90
2018-08-09T00:08:42.605Z,99.90
2018-08-09T00:11:12.282Z,99.90
2018-08-09T00:13:42.617Z,99.90
2018-08-09T00:16:11.803Z,99.90
2018-08-09T00:18:41.106Z,99.90
2018-08-09T00:21:10.963Z,99.90
2018-08-09T00:23:40.076Z,99.90
2018-08-09T00:26:09.566Z,99.90
2018-08-09T00:28:38.958Z,99.90
2018-08-09T00:31:08.632Z,99.90
2018-08-09T00:33:37.735Z,99.90
2018-08-09T00:36:07.084Z,99.90
2018-08-09T00:38:36.524Z,99.90
2018-08-09T00:41:05.797Z,99.90
2018-08-09T00:43:35.292Z,99.90
2018-08-09T00:46:04.932Z,99.90
2018-08-09T00:48:34.537Z,99.90
2018-08-09T00:51:04.363Z,99.90
2018-08-09T00:53:33.782Z,99.90
2018-08-09T00:56:03.175Z,99.90
2018-08-09T00:58:32.844Z,99.90
2018-08-09T01:01:02.072Z,99.90
2018-08-09T01:03:32.003Z,99.90
2018-08-09T01:06:01.077Z,99.90
2018-08-09T01:08:30.449Z,99.90
2018-08-09T01:10:59.985Z,99.90
2018-08-09T01:13:29.392Z,99.90
2018-08-09T01:15:58.740Z,99.90
2018-08-09T01:18:28.318Z,99.90
2018-08-09T01:20:57.570Z,99.90
2018-08-09T01:23:26.736Z,99.90
2018-08-09T01:25:56.143Z,99.90
2018-08-09T01:28:25.490Z,99.90
2018-08-09T01:30:55.346Z,99.90
2018-08-09T01:33:25.010Z,99.90
2018-08-09T01:35:54.312Z,99.90
2018-08-09T01:38:23.549Z,99.90
2018-08-09T01:40:53.200Z,99.90
2018-08-09T01:43:33.861Z,99.90
2018-08-09T01:46:02.949Z,99.90
2018-08-09T01:48:32.248Z,99.90
2018-08-09T01:51:01.318Z,99.90
2018-08-09T01:53:30.308Z,99.90
2018-08-09T01:55:59.715Z,99.90
2018-08-09T01:58:28.781Z,99.90
2018-08-09T02:00:57.900Z,99.90
2018-08-09T02:03:26.980Z,99.90
2018-08-09T02:05:56.316Z,99.90
2018-08-09T02:08:25.480Z,99.90
2018-08-09T02:10:54.658Z,99.90
2018-08-09T02:13:24.125Z,99.90
2018-08-09T02:15:53.600Z,99.90
2018-08-09T02:18:23.226Z,99.90
2018-08-09T02:20:53.140Z,99.90
2018-08-09T02:23:22.588Z,99.90
2018-08-09T02:25:52.718Z,99.90
2018-08-09T02:28:22.296Z,99.90
2018-08-09T02:30:51.756Z,99.90
2018-08-09T02:33:21.114Z,99.90
2018-08-09T02:35:51.345Z,99.90
2018-08-09T02:38:20.892Z,99.90
2018-08-09T02:40:50.342Z,99.90
2018-08-09T02:43:19.496Z,99.90
2018-08-09T02:45:49.218Z,99.90
2018-08-09T02:48:18.462Z,99.90
2018-08-09T02:50:47.703Z,99.90
2018-08-09T02:53:17.150Z,99.90
2018-08-09T02:55:46.460Z,99.90
2018-08-09T02:58:15.947Z,99.90
2018-08-09T03:00:45.300Z,99.90
2018-08-09T03:03:14.648Z,99.90
2018-08-09T03:05:44.144Z,99.90
2018-08-09T03:08:14.762Z,99.90
2018-08-09T03:10:44.090Z,99.90
2018-08-09T03:13:13.387Z,99.90
2018-08-09T03:15:42.564Z,99.90
2018-08-09T03:18:12.005Z,99.90
2018-08-09T03:20:41.659Z,99.90
2018-08-09T03:23:11.152Z,99.90
2018-08-09T03:25:41.201Z,99.90
2018-08-09T03:28:10.893Z,99.90
2018-08-09T03:30:40.137Z,99.90
2018-08-09T03:33:09.655Z,99.90
2018-08-09T03:35:38.826Z,99.90
2018-08-09T03:38:08.196Z,99.90
2018-08-09T03:40:37.447Z,99.90
2018-08-09T03:43:07.257Z,99.90
2018-08-09T03:45:36.619Z,99.90
2018-08-09T03:48:06.316Z,99.90
2018-08-09T03:50:35.648Z,99.90
2018-08-09T03:53:05.135Z,99.90
2018-08-09T03:55:34.576Z,99.90
2018-08-09T03:58:03.865Z,99.90
2018-08-09T04:00:33.187Z,99.90
2018-08-09T04:03:02.707Z,99.90
2018-08-09T04:05:32.297Z,99.90
2018-08-09T04:08:01.709Z,99.90
2018-08-09T04:10:31.020Z,99.90
2018-08-09T04:13:00.756Z,99.90
2018-08-09T04:15:30.106Z,99.90
2018-08-09T04:17:59.349Z,99.90
2018-08-09T04:20:28.884Z,99.90
2018-08-09T04:22:58.252Z,99.90
2018-08-09T04:25:28.054Z,99.90
2018-08-09T04:27:57.470Z,99.90
2018-08-09T04:30:27.088Z,99.90
2018-08-09T04:32:56.558Z,99.90
2018-08-09T04:35:26.246Z,99.90
2018-08-09T04:37:55.665Z,99.90
2018-08-09T04:40:25.176Z,99.90
2018-08-09T04:42:54.935Z,99.90
2018-08-09T04:45:24.655Z,99.90
2018-08-09T04:47:54.098Z,99.90
2018-08-09T04:50:23.699Z,99.90
2018-08-09T04:52:53.452Z,99.90
2018-08-09T04:55:22.951Z,99.90
2018-08-09T04:57:53.161Z,99.90
2018-08-09T05:00:22.496Z,99.90
2018-08-09T05:02:51.795Z,99.90
2018-08-09T05:05:22.182Z,99.90
2018-08-09T05:07:51.639Z,99.90
2018-08-09T05:10:21.281Z,99.90
2018-08-09T05:12:50.655Z,99.90
2018-08-09T05:15:20.124Z,99.90
2018-08-09T05:17:49.457Z,99.90
2018-08-09T05:20:19.125Z,99.90
2018-08-09T05:22:49.124Z,99.90
2018-08-09T05:25:18.445Z,99.90
2018-08-09T05:27:47.776Z,99.90
2018-08-09T05:30:17.123Z,99.90
2018-08-09T05:32:46.523Z,99.90
2018-08-09T05:35:15.880Z,99.90
2018-08-09T05:37:45.062Z,99.90
2018-08-09T05:40:15.096Z,99.90
2018-08-09T05:42:44.488Z,99.90
2018-08-09T05:45:13.757Z,99.90
2018-08-09T05:47:42.859Z,99.90
2018-08-09T05:50:12.198Z,99.90
2018-08-09T05:52:41.514Z,99.90
2018-08-09T05:55:11.041Z,99.90
2018-08-09T05:57:40.392Z,99.90
2018-08-09T06:00:09.978Z,99.90
2018-08-09T06:02:39.476Z,99.90
2018-08-09T06:05:08.949Z,99.90
2018-08-09T06:07:38.421Z,99.90
2018-08-09T06:10:08.446Z,99.90
2018-08-09T06:12:37.791Z,99.90
2018-08-09T06:15:07.150Z,99.90
2018-08-09T06:17:36.685Z,99.90
2018-08-09T06:20:07.004Z,99.90
2018-08-09T06:22:36.365Z,99.90
2018-08-09T06:25:06.916Z,99.90
2018-08-09T06:27:36.060Z,99.90
2018-08-09T06:30:07.705Z,99.90
2018-08-09T06:32:37.063Z,99.90
2018-08-09T06:35:08.325Z,99.90
2018-08-09T06:37:38.062Z,99.90
2018-08-09T06:40:11.815Z,99.90
2018-08-09T06:42:42.090Z,99.90
2018-08-09T06:45:11.589Z,99.90
2018-08-09T06:47:41.241Z,99.90
2018-08-09T06:50:11.725Z,99.90
2018-08-09T06:52:41.659Z,99.90
2018-08-09T06:55:11.351Z,99.90
2018-08-09T06:57:41.107Z,99.90
2018-08-09T07:00:13.078Z,99.90
2018-08-09T07:02:42.564Z,99.90
2018-08-09T07:05:11.737Z,99.90
2018-08-09T07:07:41.495Z,99.90
2018-08-09T07:10:10.962Z,99.90
2018-08-09T07:12:40.010Z,99.90
2018-08-09T07:15:12.250Z,99.90
2018-08-09T07:17:42.264Z,99.90
2018-08-09T07:20:12.012Z,99.90
2018-08-09T07:22:42.204Z,99.90
2018-08-09T07:25:11.647Z,99.90
2018-08-09T07:27:41.396Z,99.90
2018-08-09T07:30:12.999Z,99.90
2018-08-09T07:32:42.357Z,99.90
2018-08-09T07:35:12.069Z,99.90
2018-08-09T07:37:41.395Z,99.90
2018-08-09T07:40:12.222Z,99.90
2018-08-09T07:42:42.749Z,99.90
2018-08-09T07:45:13.786Z,99.90
2018-08-09T07:47:43.291Z,99.90
2018-08-09T07:50:13.017Z,99.90
2018-08-09T07:52:42.375Z,99.90
2018-08-09T07:55:12.177Z,99.90
2018-08-09T07:57:41.829Z,99.90
2018-08-09T08:00:12.650Z,99.90
2018-08-09T08:02:42.249Z,99.90
2018-08-09T08:05:11.544Z,99.90
2018-08-09T08:07:40.936Z,99.90
2018-08-09T08:10:10.851Z,99.90
2018-08-09T08:12:40.307Z,99.90
2018-08-09T08:15:10.513Z,99.90
2018-08-09T08:17:39.628Z,99.90
2018-08-09T08:20:09.473Z,99.90
2018-08-09T08:22:38.782Z,99.90
2018-08-09T08:25:08.533Z,99.90
2018-08-09T08:27:38.124Z,99.90
2018-08-09T08:30:10.797Z,99.90
2018-08-09T08:32:41.039Z,99.90
2018-08-09T08:35:10.937Z,99.90
2018-08-09T08:37:41.171Z,99.90
2018-08-09T08:40:10.854Z,99.90
2018-08-09T08:42:40.388Z,99.90
2018-08-09T08:45:12.696Z,99.90
2018-08-09T08:47:43.239Z,99.90
2018-08-09T08:50:13.364Z,99.70
2018-08-09T08:52:43.115Z,99.20
2018-08-09T08:55:13.316Z,98.70
2018-08-09T08:57:42.719Z,98.40
2018-08-09T09:00:13.228Z,99.90
2018-08-09T09:02:42.679Z,99.20
2018-08-09T09:05:13.173Z,98.10
2018-08-09T09:07:42.794Z,98.40
2018-08-09T09:10:13.545Z,97.80
2018-08-09T09:12:43.009Z,97.40
2018-08-09T09:15:14.596Z,96.50
2018-08-09T09:17:45.019Z,97.30
2018-08-09T09:20:15.837Z,96.30
2018-08-09T09:22:45.751Z,96.30
2018-08-09T09:25:15.048Z,97.00
2018-08-09T09:27:44.453Z,96.00
2018-08-09T09:30:15.545Z,94.40
2018-08-09T09:32:45.307Z,94.90
2018-08-09T09:35:14.768Z,94.10
2018-08-09T09:37:44.777Z,94.70
2018-08-09T09:40:14.401Z,94.40
2018-08-09T09:42:44.744Z,93.90
2018-08-09T09:45:14.573Z,93.60
2018-08-09T09:47:44.320Z,93.50
2018-08-09T09:50:13.738Z,93.90
2018-08-09T09:52:43.334Z,95.40
2018-08-09T09:55:12.881Z,95.60
2018-08-09T09:57:42.541Z,96.40
2018-08-09T10:00:17.215Z,96.60
2018-08-09T10:02:46.892Z,97.40
2018-08-09T10:05:16.746Z,97.30
2018-08-09T10:07:46.194Z,98.80
2018-08-09T10:10:15.860Z,95.50
2018-08-09T10:12:45.462Z,95.20
2018-08-09T10:15:15.162Z,95.70
2018-08-09T10:17:44.784Z,96.50
2018-08-09T10:20:14.460Z,95.80
2018-08-09T10:22:44.110Z,95.80
2018-08-09T10:25:13.961Z,96.70
2018-08-09T10:27:43.568Z,98.10
2018-08-09T10:30:12.884Z,98.80
2018-08-09T10:32:42.140Z,98.00
2018-08-09T10:35:12.261Z,99.30
2018-08-09T10:37:41.406Z,99.90
2018-08-09T10:40:10.654Z,99.90
2018-08-09T10:42:40.099Z,99.90
2018-08-09T10:45:09.370Z,99.90
2018-08-09T10:47:38.800Z,99.90
2018-08-09T10:50:08.153Z,99.90
2018-08-09T10:52:37.626Z,99.90
2018-08-09T10:55:07.357Z,99.90
2018-08-09T10:57:36.789Z,99.90
2018-08-09T11:00:08.532Z,99.90
2018-08-09T11:02:38.090Z,99.90
2018-08-09T11:05:07.811Z,99.90
2018-08-09T11:07:37.420Z,99.90
2018-08-09T11:10:08.610Z,99.90
2018-08-09T11:12:38.423Z,99.90
2018-08-09T11:15:11.473Z,99.90
2018-08-09T11:17:45.885Z,99.90
2018-08-09T11:20:15.379Z,99.90
2018-08-09T11:22:44.928Z,99.90
2018-08-09T11:25:14.233Z,99.90
2018-08-09T11:27:43.545Z,99.90
2018-08-09T11:30:12.802Z,99.90
2018-08-09T11:32:42.269Z,99.90
2018-08-09T11:35:11.511Z,99.90
2018-08-09T11:37:41.047Z,99.90
2018-08-09T11:40:10.594Z,99.90
2018-08-09T11:42:40.155Z,99.90
2018-08-09T11:45:09.741Z,99.90
2018-08-09T11:47:39.016Z,99.90
2018-08-09T11:50:08.248Z,99.90
2018-08-09T11:52:37.910Z,99.90
2018-08-09T11:55:07.238Z,99.90
2018-08-09T11:57:36.821Z,99.90
2018-08-09T12:00:07.253Z,99.90
2018-08-09T12:02:36.400Z,99.90
2018-08-09T12:05:05.533Z,99.90
2018-08-09T12:07:35.177Z,99.90
2018-08-09T12:10:05.048Z,99.90
2018-08-09T12:12:34.165Z,99.90
2018-08-09T12:15:03.504Z,99.90
2018-08-09T12:17:32.934Z,99.90
2018-08-09T12:20:02.396Z,99.90
2018-08-09T12:22:32.721Z,99.90
2018-08-09T12:25:02.086Z,99.90
2018-08-09T12:27:31.434Z,99.90
2018-08-09T12:30:00.719Z,99.90
2018-08-09T12:32:29.986Z,99.90
2018-08-09T12:34:59.358Z,99.90
2018-08-09T12:37:28.592Z,99.90
2018-08-09T12:39:57.959Z,99.90
2018-08-09T12:42:27.328Z,99.90
2018-08-09T12:44:56.674Z,99.90
2018-08-09T12:47:26.058Z,99.90
2018-08-09T12:49:55.444Z,99.90
2018-08-09T12:52:24.698Z,99.90
2018-08-09T12:54:54.187Z,99.90
2018-08-09T12:57:23.561Z,99.90
2018-08-09T12:59:52.956Z,99.90
2018-08-09T13:02:22.582Z,99.90
2018-08-09T13:04:51.883Z,99.90
2018-08-09T13:07:21.253Z,99.90
2018-08-09T13:09:50.773Z,99.90
2018-08-09T13:12:20.089Z,99.90
2018-08-09T13:14:49.516Z,99.90
2018-08-09T13:17:18.982Z,99.90
2018-08-09T13:19:48.431Z,99.90
2018-08-09T13:22:18.027Z,99.90
2018-08-09T13:24:47.257Z,99.90
2018-08-09T13:27:16.459Z,99.90
2018-08-09T13:29:46.034Z,99.90
2018-08-09T13:32:15.176Z,99.90
2018-08-09T13:34:44.588Z,99.90
2018-08-09T13:37:13.942Z,99.90
2018-08-09T13:39:43.078Z,99.90
2018-08-09T13:42:12.297Z,99.90
2018-08-09T13:44:41.534Z,99.90
2018-08-09T13:47:10.835Z,99.90
2018-08-09T13:49:40.241Z,99.90
2018-08-09T13:52:09.714Z,99.90
2018-08-09T13:54:39.111Z,99.90
2018-08-09T13:57:08.465Z,99.90
2018-08-09T13:59:39.591Z,99.90
2018-08-09T14:02:10.236Z,99.90
2018-08-09T14:04:39.850Z,99.90
2018-08-09T14:07:09.124Z,99.90
2018-08-09T14:09:38.842Z,99.90
2018-08-09T14:12:08.209Z,99.90
2018-08-09T14:14:37.546Z,99.90
2018-08-09T14:17:06.985Z,99.90
2018-08-09T14:19:36.559Z,99.90
2018-08-09T14:22:06.833Z,99.90
2018-08-09T14:24:36.641Z,99.90
2018-08-09T14:27:06.370Z,99.90
2018-08-09T14:29:36.617Z,99.90
2018-08-09T14:32:06.286Z,99.90
2018-08-09T14:34:35.540Z,99.90
2018-08-09T14:37:05.117Z,99.90
2018-08-09T14:39:34.617Z,99.90
2018-08-09T14:42:04.193Z,99.90
2018-08-09T14:44:33.345Z,99.90
2018-08-09T14:47:02.618Z,99.90
2018-08-09T14:49:32.003Z,99.90
2018-08-09T14:52:01.479Z,99.90
2018-08-09T14:54:30.776Z,99.90
2018-08-09T14:57:00.174Z,99.90
2018-08-09T14:59:29.289Z,99.90
2018-08-09T15:01:58.643Z,99.90
2018-08-09T15:04:27.975Z,99.90
2018-08-09T15:06:58.661Z,99.90
2018-08-09T15:09:27.886Z,99.90
2018-08-09T15:11:57.413Z,99.90
2018-08-09T15:14:26.591Z,99.90
2018-08-09T15:29:55.497Z,99.90
2018-08-09T15:32:26.053Z,99.90
2018-08-09T15:34:55.277Z,99.90
2018-08-09T15:37:24.574Z,99.90
2018-08-09T15:39:53.913Z,99.90
2018-08-09T15:42:23.825Z,99.90
2018-08-09T15:44:53.031Z,99.90
2018-08-09T15:47:22.287Z,99.90
2018-08-09T15:49:51.470Z,99.90
2018-08-09T15:52:21.041Z,99.90
2018-08-09T15:54:50.445Z,99.90
2018-08-09T15:57:19.963Z,99.90
2018-08-09T15:59:49.286Z,99.90
2018-08-09T16:02:18.673Z,99.90
2018-08-09T16:04:48.275Z,99.90
2018-08-09T16:07:18.592Z,99.90
2018-08-09T16:09:48.917Z,99.90
2018-08-09T16:12:18.767Z,99.90
2018-08-09T16:14:48.989Z,99.90
2018-08-09T16:17:19.086Z,99.90
2018-08-09T16:19:48.666Z,99.90
2018-08-09T16:22:18.088Z,99.90
2018-08-09T16:24:47.728Z,99.90
2018-08-09T16:27:17.223Z,99.90
2018-08-09T16:29:46.671Z,99.90
2018-08-09T16:32:15.998Z,99.90
2018-08-09T16:34:45.241Z,99.90
2018-08-09T16:37:14.590Z,99.90
2018-08-09T16:39:44.080Z,99.90
2018-08-09T16:42:13.497Z,99.90
2018-08-09T16:44:42.732Z,99.90
2018-08-09T16:47:12.277Z,99.90
2018-08-09T16:49:42.336Z,99.90
2018-08-09T16:52:11.685Z,99.90
2018-08-09T16:54:42.946Z,99.90
2018-08-09T16:57:12.550Z,99.90
2018-08-09T16:59:42.252Z,99.90
2018-08-09T17:02:11.904Z,99.90
2018-08-09T17:04:41.646Z,99.90
2018-08-09T17:07:11.215Z,99.90
2018-08-09T17:09:40.655Z,99.90
2018-08-09T17:12:10.320Z,99.90
2018-08-09T17:14:39.585Z,99.90
2018-08-09T17:17:09.002Z,99.90
2018-08-09T17:19:38.236Z,99.90
2018-08-09T17:22:07.914Z,99.90
2018-08-09T17:24:37.166Z,99.90
2018-08-09T17:27:06.395Z,99.90
2018-08-09T17:29:35.833Z,99.90
2018-08-09T17:32:05.194Z,99.90
2018-08-09T17:34:34.399Z,99.90
2018-08-09T17:37:04.301Z,99.90
2018-08-09T17:39:33.642Z,99.90
2018-08-09T17:42:02.960Z,99.90
2018-08-09T17:44:32.585Z,99.90
2018-08-09T17:47:02.141Z,99.90
2018-08-09T17:49:31.449Z,99.90
2018-08-09T17:52:00.835Z,99.90
2018-08-09T17:54:30.262Z,99.90
2018-08-09T17:57:00.033Z,99.90
2018-08-09T17:59:29.790Z,99.90
2018-08-09T18:01:59.442Z,99.90
2018-08-09T18:04:28.959Z,99.90
2018-08-09T18:06:58.525Z,99.90
2018-08-09T18:09:28.324Z,99.90
2018-08-09T18:11:58.470Z,99.90
2018-08-09T18:14:29.349Z,99.90
2018-08-09T18:16:58.724Z,99.90
2018-08-09T18:19:28.117Z,99.90
2018-08-09T18:21:57.702Z,99.90
2018-08-09T18:24:27.092Z,99.90
2018-08-09T18:26:56.516Z,99.90
2018-08-09T18:29:25.990Z,99.90
2018-08-09T18:31:55.446Z,99.90
2018-08-09T18:34:24.666Z,99.90
2018-08-09T18:36:54.154Z,99.90
2018-08-09T18:39:23.511Z,99.90
2018-08-09T18:41:53.681Z,99.90
2018-08-09T18:44:23.179Z,99.90
2018-08-09T18:46:52.616Z,99.90
2018-08-09T18:49:22.746Z,99.90
2018-08-09T18:51:52.306Z,99.90
2018-08-09T18:54:21.937Z,99.90
2018-08-09T18:57:31.145Z,99.90
2018-08-09T19:00:00.462Z,99.90
2018-08-09T19:02:30.149Z,99.90
2018-08-09T19:04:59.804Z,99.90
2018-08-09T19:07:29.677Z,99.90
2018-08-09T19:09:59.308Z,99.90
2018-08-09T19:12:28.674Z,99.90
2018-08-09T19:14:58.627Z,99.90
2018-08-09T19:17:28.351Z,99.90
2018-08-09T19:19:58.057Z,99.90
2018-08-09T19:22:27.618Z,99.90
2018-08-09T19:24:57.896Z,99.90
2018-08-09T19:27:27.845Z,99.90
2018-08-09T19:29:57.401Z,99.90
2018-08-09T19:32:27.292Z,99.90
2018-08-09T19:34:56.639Z,99.90
2018-08-09T19:37:25.984Z,99.90
2018-08-09T19:39:55.669Z,99.90
2018-08-09T19:42:25.796Z,99.90
2018-08-09T19:44:55.737Z,99.90
2018-08-09T19:47:25.821Z,99.90
2018-08-09T19:49:56.824Z,99.90
2018-08-09T19:52:27.660Z,99.90
2018-08-09T19:54:57.117Z,99.90
2018-08-09T19:57:26.918Z,99.90
2018-08-09T19:59:56.915Z,99.90
2018-08-09T20:02:26.601Z,99.90
2018-08-09T20:04:57.302Z,99.90
2018-08-09T20:07:28.065Z,99.90
2018-08-09T20:09:59.161Z,99.90
2018-08-09T20:12:28.660Z,99.90
2018-08-09T20:14:58.466Z,99.90
2018-08-09T20:17:27.876Z,99.90
2018-08-09T20:19:58.060Z,99.90
2018-08-09T20:22:27.339Z,99.90
2018-08-09T20:24:57.243Z,99.90
2018-08-09T20:27:26.752Z,99.90
2018-08-09T20:29:57.699Z,99.90
2018-08-09T20:32:27.402Z,99.90
2018-08-09T20:34:57.312Z,99.90
2018-08-09T20:37:26.666Z,99.90
2018-08-09T20:39:56.560Z,99.90
2018-08-09T20:42:26.149Z,99.90
2018-08-09T20:44:55.443Z,99.90
2018-08-09T20:47:25.169Z,99.90
2018-08-09T20:49:54.837Z,99.90
2018-08-09T20:52:24.364Z,99.90
2018-08-09T20:54:53.817Z,99.90
2018-08-09T20:57:23.250Z,99.90
2018-08-09T20:59:52.840Z,99.90
2018-08-09T21:02:22.356Z,99.90
2018-08-09T21:04:51.611Z,99.90
2018-08-09T21:07:21.186Z,99.90
2018-08-09T21:09:50.873Z,99.90
2018-08-09T21:12:20.478Z,99.90
2018-08-09T21:14:49.907Z,99.90
2018-08-09T21:17:19.358Z,99.90
2018-08-09T21:19:48.832Z,99.90
2018-08-09T21:22:18.332Z,99.90
2018-08-09T21:24:47.661Z,99.90
2018-08-09T21:27:17.054Z,99.90
2018-08-09T21:29:46.658Z,99.90
2018-08-09T21:32:16.227Z,99.90
2018-08-09T21:34:45.610Z,99.90
2018-08-09T21:37:15.568Z,99.90
2018-08-09T21:39:45.098Z,99.90
2018-08-09T21:42:14.494Z,99.90
2018-08-09T21:44:43.903Z,99.90
2018-08-09T21:47:13.592Z,99.90
2018-08-09T21:49:43.131Z,99.90
2018-08-09T21:52:13.346Z,99.90
2018-08-09T21:54:42.854Z,99.90
2018-08-09T21:57:12.009Z,99.90
2018-08-09T21:59:41.532Z,99.90
2018-08-09T22:02:10.794Z,99.90
2018-08-09T22:04:45.240Z,99.90
2018-08-09T22:07:20.424Z,99.90
2018-08-09T22:09:54.828Z,99.90
2018-08-09T22:12:29.529Z,99.90
2018-08-09T22:15:04.385Z,99.90
2018-08-09T22:17:39.214Z,99.90
2018-08-09T22:21:14.210Z,99.90
2018-08-09T22:23:43.849Z,99.90
2018-08-09T22:26:13.496Z,99.90
2018-08-09T22:28:43.657Z,99.90
2018-08-09T22:31:13.752Z,99.90
2018-08-09T22:33:43.099Z,99.90
2018-08-09T22:36:13.116Z,99.90
2018-08-09T22:38:42.730Z,99.90
2018-08-09T22:41:12.375Z,99.90
2018-08-09T22:43:42.156Z,99.90
2018-08-09T22:46:11.722Z,99.90
2018-08-09T22:48:41.821Z,99.90
2018-08-09T22:51:11.614Z,99.90
2018-08-09T22:53:41.268Z,99.90
2018-08-09T22:56:11.508Z,99.90
2018-08-09T22:58:41.194Z,99.90
2018-08-09T23:01:10.365Z,99.90
2018-08-09T23:03:40.548Z,99.90
2018-08-09T23:06:10.285Z,99.90
2018-08-09T23:08:40.260Z,99.90
2018-08-09T23:11:09.719Z,99.90
2018-08-09T23:13:39.661Z,99.90
2018-08-09T23:16:09.218Z,99.90
2018-08-09T23:18:38.493Z,99.90
2018-08-09T23:21:07.631Z,99.90
2018-08-09T23:23:37.031Z,99.90
2018-08-09T23:26:06.421Z,99.90
2018-08-09T23:28:35.943Z,99.90
2018-08-09T23:31:05.713Z,99.90
2018-08-09T23:33:35.289Z,99.90
2018-08-09T23:36:04.843Z,99.90
2018-08-09T23:38:34.150Z,99.90
2018-08-09T23:41:03.573Z,99.90
2018-08-09T23:43:33.181Z,99.90
2018-08-09T23:46:02.767Z,99.90
2018-08-09T23:48:32.574Z,99.90
2018-08-09T23:51:02.201Z,99.90
2018-08-09T23:53:31.490Z,99.90
2018-08-09T23:56:01.169Z,99.90
2018-08-09T23:58:30.664Z,99.90
